Time;durP1;ratioP1;P1;durP2;ratioP2;P2;SDS_P1;SDS_P2;PMS_P1;PMS_P2;Temp;Humidity;BMP_temperature;BMP_pressure;BME280_temperature;BME280_humidity;BME280_pressure;Samples;Min_cycle;Max_cycle;Signal;HPM_P1;HPM_P2
2022/09/11 05:00:32;;;;;;;2.30;2.10;;;16.70;97.20;;;;;;1734161;28;20674;-72
2022/09/11 05:01:24;;;;;;;2.72;2.53;;;16.70;97.20;;;;;;1734053;28;20204;-72
2022/09/11 05:02:16;;;;;;;3.78;2.67;;;16.70;97.20;;;;;;1734028;28;20199;-72
2022/09/11 05:03:06;;;;;;;2.97;2.78;;;16.70;97.20;;;;;;1733714;28;20196;-72
2022/09/11 05:03:59;;;;;;;3.17;2.40;;;16.70;97.20;;;;;;1734110;28;20207;-72
2022/09/11 05:04:50;;;;;;;2.85;2.55;;;16.70;97.20;;;;;;1733857;28;20239;-73
2022/09/11 05:05:42;;;;;;;2.40;2.20;;;16.70;97.20;;;;;;1734052;28;20203;-73
2022/09/11 05:06:33;;;;;;;2.67;2.35;;;16.70;97.20;;;;;;1733849;28;20469;-72
2022/09/11 05:07:24;;;;;;;3.00;2.30;;;16.70;97.20;;;;;;1733651;28;20220;-73
2022/09/11 05:08:17;;;;;;;2.80;2.60;;;16.70;97.20;;;;;;1734002;28;20586;-72
2022/09/11 05:09:10;;;;;;;4.95;3.50;;;16.70;97.20;;;;;;1734068;28;20230;-73
2022/09/11 05:10:01;;;;;;;2.60;2.40;;;16.70;97.20;;;;;;1734033;28;20199;-74
2022/09/11 05:10:54;;;;;;;2.70;2.42;;;16.70;97.20;;;;;;1733974;28;20682;-72
2022/09/11 05:11:44;;;;;;;2.47;2.38;;;16.70;97.20;;;;;;1734015;28;20219;-73
2022/09/11 05:12:36;;;;;;;2.70;2.50;;;16.70;97.20;;;;;;1734058;28;20204;-72
2022/09/11 05:13:30;;;;;;;3.05;2.40;;;16.70;97.20;;;;;;1734103;28;20561;-72
2022/09/11 05:14:21;;;;;;;2.85;2.65;;;16.70;97.20;;;;;;1734033;28;20258;-72
2022/09/11 05:15:12;;;;;;;3.25;2.75;;;16.70;97.20;;;;;;1734080;28;20227;-72
2022/09/11 05:16:07;;;;;;;3.40;2.80;;;16.70;97.20;;;;;;1734066;28;20207;-72
2022/09/11 05:16:58;;;;;;;4.00;2.50;;;16.80;97.20;;;;;;1733976;28;20442;-73
2022/09/11 05:17:50;;;;;;;3.20;2.90;;;16.70;97.20;;;;;;1733831;28;20199;-73
2022/09/11 05:18:41;;;;;;;3.38;2.50;;;16.80;97.20;;;;;;1733997;28;20585;-73
2022/09/11 05:19:33;;;;;;;2.65;2.45;;;16.80;97.20;;;;;;1733662;28;20203;-73
2022/09/11 05:20:24;;;;;;;3.08;2.55;;;16.80;97.20;;;;;;1734091;28;20196;-72
2022/09/11 05:21:16;;;;;;;3.57;3.10;;;16.80;97.20;;;;;;1734033;28;20192;-73
2022/09/11 05:22:07;;;;;;;2.95;2.75;;;16.80;97.20;;;;;;1734119;28;20207;-73
2022/09/11 05:22:59;;;;;;;3.83;2.47;;;16.80;97.20;;;;;;1734059;28;20200;-73
2022/09/11 05:23:52;;;;;;;2.92;2.63;;;16.80;97.20;;;;;;1734094;28;20200;-73
2022/09/11 05:24:44;;;;;;;4.05;2.90;;;16.80;97.20;;;;;;1734022;28;20199;-72
2022/09/11 05:25:35;;;;;;;3.10;2.72;;;16.80;97.20;;;;;;1734008;28;20561;-73
2022/09/11 05:26:29;;;;;;;3.53;2.92;;;16.80;97.20;;;;;;1734005;28;20200;-73
2022/09/11 05:27:19;;;;;;;3.78;3.08;;;16.90;97.20;;;;;;1733597;28;20319;-72
2022/09/11 05:28:11;;;;;;;2.80;2.60;;;16.90;97.20;;;;;;1734060;28;20251;-72
2022/09/11 05:29:06;;;;;;;3.55;2.80;;;16.90;97.20;;;;;;1733946;28;20239;-72
2022/09/11 05:29:57;;;;;;;3.42;2.90;;;16.80;97.20;;;;;;1734014;28;20207;-74
2022/09/11 05:30:48;;;;;;;3.15;2.85;;;16.90;97.20;;;;;;1733937;28;20200;-72
2022/09/11 05:31:42;;;;;;;3.10;2.83;;;16.90;97.20;;;;;;1733982;28;20210;-72
2022/09/11 05:32:32;;;;;;;3.65;2.70;;;16.90;97.20;;;;;;1733997;28;20207;-73
2022/09/11 05:33:24;;;;;;;3.40;3.10;;;16.90;97.20;;;;;;1733968;28;20203;-73
2022/09/11 05:34:16;;;;;;;3.35;3.05;;;16.90;97.20;;;;;;1733919;28;20192;-73
2022/09/11 05:35:07;;;;;;;4.00;3.60;;;16.90;97.20;;;;;;1734019;28;20204;-72
2022/09/11 05:36:04;;;;;;;3.08;2.75;;;16.90;97.20;;;;;;1733645;28;20218;-74
2022/09/11 05:36:56;;;;;;;3.10;2.80;;;16.90;97.20;;;;;;1733740;28;20612;-74
2022/09/11 05:37:47;;;;;;;3.78;3.20;;;16.90;97.20;;;;;;1733692;28;20216;-73
2022/09/11 05:38:38;;;;;;;5.72;3.38;;;16.90;97.20;;;;;;1733866;28;20204;-72
2022/09/11 05:39:30;;;;;;;3.25;2.90;;;16.90;97.20;;;;;;1733563;28;20192;-72
2022/09/11 05:40:21;;;;;;;3.22;2.90;;;16.90;97.20;;;;;;1733963;28;20203;-73
2022/09/11 05:41:13;;;;;;;3.73;3.40;;;16.90;97.20;;;;;;1734059;28;20202;-73
2022/09/11 05:42:04;;;;;;;3.30;3.00;;;16.90;97.20;;;;;;1734045;28;20199;-72
2022/09/11 05:42:56;;;;;;;4.47;3.77;;;16.90;97.20;;;;;;1733988;28;20196;-72
2022/09/11 05:43:47;;;;;;;3.38;3.08;;;16.90;97.20;;;;;;1733947;28;20462;-72
2022/09/11 05:44:39;;;;;;;2.90;2.70;;;16.80;97.20;;;;;;1733963;28;20206;-72
2022/09/11 05:45:31;;;;;;;3.15;2.92;;;16.80;97.20;;;;;;1733966;28;20936;-72
2022/09/11 05:46:22;;;;;;;3.30;2.80;;;16.90;97.20;;;;;;1733936;28;20546;-72
2022/09/11 05:47:15;;;;;;;3.00;2.80;;;16.80;97.20;;;;;;1733752;28;20220;-72
2022/09/11 05:48:07;;;;;;;3.53;3.22;;;16.90;97.20;;;;;;1735161;28;20199;-72
2022/09/11 05:48:58;;;;;;;3.03;2.83;;;16.90;97.20;;;;;;1735084;28;20333;-73
2022/09/11 05:49:49;;;;;;;4.03;3.00;;;16.90;97.20;;;;;;1735224;28;20204;-73
2022/09/11 05:50:40;;;;;;;5.53;3.67;;;16.90;97.20;;;;;;1735166;28;20453;-72
2022/09/11 05:51:34;;;;;;;3.17;2.93;;;16.90;97.20;;;;;;1735115;28;20234;-73
2022/09/11 05:52:25;;;;;;;3.22;2.90;;;16.90;97.20;;;;;;1734890;28;20269;-73
2022/09/11 05:53:17;;;;;;;7.10;3.10;;;16.90;97.20;;;;;;1734786;28;20200;-73
2022/09/11 05:54:07;;;;;;;2.78;2.45;;;16.90;97.20;;;;;;1735209;28;20659;-73
2022/09/11 05:54:59;;;;;;;3.43;2.97;;;16.90;97.20;;;;;;1734927;28;20676;-72
2022/09/11 05:55:50;;;;;;;3.10;2.80;;;16.90;97.20;;;;;;1735149;28;20446;-73
2022/09/11 05:56:42;;;;;;;3.83;2.75;;;16.90;97.20;;;;;;1734992;28;20203;-72
2022/09/11 05:57:33;;;;;;;3.33;3.03;;;16.90;97.20;;;;;;1734843;28;20690;-72
2022/09/11 05:58:25;;;;;;;3.40;3.00;;;16.90;97.20;;;;;;1735143;28;20656;-72
2022/09/11 05:59:16;;;;;;;5.10;2.92;;;16.90;97.20;;;;;;1735093;28;20302;-73
2022/09/11 06:00:09;;;;;;;3.80;3.35;;;16.90;97.20;;;;;;1735189;28;20226;-73
2022/09/11 06:01:03;;;;;;;4.28;3.00;;;16.90;97.20;;;;;;1735103;28;20692;-73
2022/09/11 06:01:55;;;;;;;2.78;2.58;;;16.90;97.20;;;;;;1735107;28;20287;-72
2022/09/11 06:02:47;;;;;;;2.80;2.60;;;16.90;97.20;;;;;;1735140;28;20238;-73
2022/09/11 06:03:40;;;;;;;3.17;2.90;;;16.90;97.20;;;;;;1735012;28;20200;-73
2022/09/11 06:04:30;;;;;;;3.15;2.65;;;16.90;97.20;;;;;;1735046;28;20215;-73
2022/09/11 06:05:22;;;;;;;6.93;3.47;;;16.90;97.20;;;;;;1735056;28;20200;-72
2022/09/11 06:06:13;;;;;;;3.47;3.17;;;16.90;97.20;;;;;;1735047;28;20694;-72
2022/09/11 06:07:05;;;;;;;3.20;3.00;;;17.00;97.20;;;;;;1734670;28;20652;-73
2022/09/11 06:07:56;;;;;;;2.85;2.65;;;17.00;97.20;;;;;;1734788;28;20907;-74
2022/09/11 06:08:50;;;;;;;3.60;3.15;;;17.00;97.20;;;;;;1734946;28;20250;-72
2022/09/11 06:09:41;;;;;;;3.90;2.92;;;17.00;97.20;;;;;;1735045;28;20200;-72
2022/09/11 06:10:33;;;;;;;3.93;2.53;;;17.00;97.20;;;;;;1735046;28;20234;-73
2022/09/11 06:11:23;;;;;;;4.10;3.13;;;17.00;97.20;;;;;;1734963;28;20267;-72
2022/09/11 06:12:16;;;;;;;3.27;2.97;;;17.00;97.20;;;;;;1735004;28;20199;-73
2022/09/11 06:13:07;;;;;;;3.00;2.80;;;17.00;97.20;;;;;;1735056;28;20238;-73
2022/09/11 06:13:59;;;;;;;3.00;2.80;;;17.00;97.20;;;;;;1735011;28;20199;-74
2022/09/11 06:14:50;;;;;;;3.40;3.10;;;17.00;97.20;;;;;;1735051;28;20570;-74
2022/09/11 06:15:44;;;;;;;4.10;3.13;;;17.00;97.20;;;;;;1735054;28;20222;-73
2022/09/11 06:16:35;;;;;;;4.20;3.10;;;17.10;97.20;;;;;;1735006;28;20863;-73
2022/09/11 06:17:27;;;;;;;3.20;2.90;;;17.10;97.20;;;;;;1734616;28;20220;-73
2022/09/11 06:18:19;;;;;;;2.80;2.60;;;17.10;97.20;;;;;;1734917;28;20196;-73
2022/09/11 06:19:11;;;;;;;3.47;3.17;;;17.10;97.20;;;;;;1734948;28;20207;-73
2022/09/11 06:20:02;;;;;;;6.57;3.35;;;17.10;97.20;;;;;;1735029;28;20275;-73
2022/09/11 06:20:58;;;;;;;3.28;3.00;;;17.10;97.20;;;;;;1734985;28;20548;-73
2022/09/11 06:21:49;;;;;;;4.82;2.92;;;17.10;97.20;;;;;;1734963;28;20790;-73
2022/09/11 06:22:40;;;;;;;3.72;3.40;;;17.10;97.20;;;;;;1734963;28;20204;-73
2022/09/11 06:23:31;;;;;;;6.60;3.75;;;17.10;97.20;;;;;;1734486;28;20196;-73
2022/09/11 06:24:23;;;;;;;3.77;3.50;;;17.10;97.20;;;;;;1734774;28;20200;-73
2022/09/11 06:25:14;;;;;;;3.88;3.42;;;17.10;97.20;;;;;;1734926;28;20211;-73
2022/09/11 06:26:08;;;;;;;3.77;3.33;;;17.10;97.20;;;;;;1734926;28;20282;-73
2022/09/11 06:26:59;;;;;;;3.55;3.25;;;17.10;97.20;;;;;;1734773;28;20552;-73
2022/09/11 06:27:51;;;;;;;3.30;3.00;;;17.10;97.20;;;;;;1734712;28;20199;-73
2022/09/11 06:28:42;;;;;;;3.38;3.10;;;17.10;97.20;;;;;;1734851;28;20446;-73
2022/09/11 06:29:33;;;;;;;3.80;3.50;;;17.10;97.20;;;;;;1734885;28;20206;-73
2022/09/11 06:30:24;;;;;;;3.60;3.30;;;17.10;97.20;;;;;;1734953;28;20435;-73
2022/09/11 06:31:18;;;;;;;3.60;3.30;;;17.10;97.20;;;;;;1734818;28;20202;-73
2022/09/11 06:32:08;;;;;;;4.50;3.60;;;17.10;97.20;;;;;;1734835;28;20223;-74
2022/09/11 06:33:00;;;;;;;3.53;3.23;;;17.20;97.20;;;;;;1734889;28;20286;-73
2022/09/11 06:33:53;;;;;;;3.72;3.30;;;17.20;97.20;;;;;;1734801;28;20223;-72
2022/09/11 06:34:45;;;;;;;3.78;3.47;;;17.20;97.20;;;;;;1734904;28;20592;-73
2022/09/11 06:35:36;;;;;;;3.47;3.17;;;17.20;97.20;;;;;;1734867;28;20626;-73
2022/09/11 06:36:30;;;;;;;3.57;2.97;;;17.20;97.20;;;;;;1734961;28;20622;-73
2022/09/11 06:37:21;;;;;;;4.10;3.40;;;17.20;97.20;;;;;;1734469;28;20223;-73
2022/09/11 06:38:13;;;;;;;3.90;3.50;;;17.20;97.20;;;;;;1734557;28;20194;-73
2022/09/11 06:39:04;;;;;;;5.07;4.10;;;17.20;97.20;;;;;;1734846;28;20556;-73
2022/09/11 06:39:55;;;;;;;4.27;3.50;;;17.20;97.20;;;;;;1734900;28;20214;-73
2022/09/11 06:40:46;;;;;;;3.38;3.08;;;17.20;97.20;;;;;;1734843;28;20453;-73
2022/09/11 06:41:38;;;;;;;4.00;3.70;;;17.20;97.20;;;;;;1734848;28;20206;-73
2022/09/11 06:42:29;;;;;;;3.88;3.45;;;17.20;97.20;;;;;;1734747;28;20216;-73
2022/09/11 06:43:21;;;;;;;4.10;3.60;;;17.20;97.20;;;;;;1734779;28;20196;-73
2022/09/11 06:44:11;;;;;;;3.65;3.45;;;17.20;97.20;;;;;;1734886;28;20443;-73
2022/09/11 06:45:04;;;;;;;4.00;3.70;;;17.20;97.20;;;;;;1734840;28;20199;-72
2022/09/11 06:46:02;;;;;;;4.40;4.10;;;17.20;97.20;;;;;;1734774;28;20207;-73
2022/09/11 06:46:56;;;;;;;4.10;3.80;;;17.20;97.20;;;;;;1734714;28;20210;-73
2022/09/11 06:47:46;;;;;;;4.30;3.90;;;17.20;97.20;;;;;;1734583;28;20265;-73
2022/09/11 06:48:39;;;;;;;4.10;3.70;;;17.20;97.20;;;;;;1734680;28;20262;-73
2022/09/11 06:49:31;;;;;;;6.13;4.35;;;17.20;97.20;;;;;;1734813;28;20238;-73
2022/09/11 06:50:22;;;;;;;3.72;3.42;;;17.20;97.20;;;;;;1734750;28;20200;-73
2022/09/11 06:51:16;;;;;;;4.65;3.40;;;17.20;97.20;;;;;;1734720;28;20211;-71
2022/09/11 06:52:08;;;;;;;3.72;3.42;;;17.20;97.20;;;;;;1734736;28;20224;-71
2022/09/11 06:52:58;;;;;;;3.90;3.60;;;17.20;97.20;;;;;;1734697;28;20624;-71
2022/09/11 06:53:53;;;;;;;3.53;3.23;;;17.20;97.20;;;;;;1734641;28;20573;-71
2022/09/11 06:54:44;;;;;;;4.18;3.88;;;17.20;97.20;;;;;;1733271;28;20207;-71
2022/09/11 06:55:36;;;;;;;4.00;3.60;;;17.20;97.20;;;;;;1734599;28;20307;-71
2022/09/11 06:56:31;;;;;;;4.07;3.53;;;17.20;97.20;;;;;;1734534;28;20667;-71
2022/09/11 06:57:22;;;;;;;4.30;3.90;;;17.20;97.20;;;;;;1734249;28;20218;-71
2022/09/11 06:58:13;;;;;;;4.40;4.03;;;17.20;97.20;;;;;;1734574;28;20609;-71
2022/09/11 06:59:05;;;;;;;3.93;3.63;;;17.20;97.20;;;;;;1734686;28;20569;-71
2022/09/11 06:59:56;;;;;;;4.10;3.80;;;17.30;97.20;;;;;;1734733;28;20674;-71
2022/09/11 07:00:48;;;;;;;4.20;3.80;;;17.30;97.20;;;;;;1734764;28;20680;-70
2022/09/11 07:01:39;;;;;;;4.50;4.20;;;17.30;97.20;;;;;;1734729;28;20204;-70
2022/09/11 07:02:31;;;;;;;4.83;4.30;;;17.30;97.20;;;;;;1734674;28;20655;-71
2022/09/11 07:03:21;;;;;;;4.55;4.22;;;17.30;97.20;;;;;;1734696;28;20199;-71
2022/09/11 07:04:13;;;;;;;4.37;4.03;;;17.30;97.20;;;;;;1734735;28;20204;-71
2022/09/11 07:05:06;;;;;;;5.20;4.70;;;17.30;97.20;;;;;;1734687;28;20231;-71
2022/09/11 07:05:58;;;;;;;4.32;4.03;;;17.30;97.20;;;;;;1734533;28;20241;-71
2022/09/11 07:06:49;;;;;;;4.75;4.35;;;17.40;97.20;;;;;;1734550;28;20282;-70
2022/09/11 07:07:40;;;;;;;4.30;3.90;;;17.40;97.20;;;;;;1734330;28;20218;-71
2022/09/11 07:08:31;;;;;;;4.43;4.13;;;17.40;97.20;;;;;;1734550;28;20210;-71
2022/09/11 07:09:23;;;;;;;4.47;4.13;;;17.40;97.20;;;;;;1734621;28;20206;-70
2022/09/11 07:10:14;;;;;;;5.78;3.85;;;17.40;97.20;;;;;;1734654;28;20733;-70
2022/09/11 07:11:06;;;;;;;4.40;4.03;;;17.40;97.20;;;;;;1734346;28;20544;-71
2022/09/11 07:11:57;;;;;;;4.65;4.22;;;17.40;97.20;;;;;;1734522;28;20478;-71
2022/09/11 07:12:51;;;;;;;4.27;3.87;;;17.40;97.20;;;;;;1734653;28;20279;-71
2022/09/11 07:13:43;;;;;;;5.15;4.65;;;17.40;97.20;;;;;;1734632;28;20236;-71
2022/09/11 07:14:34;;;;;;;4.85;4.35;;;17.50;97.20;;;;;;1734600;28;20691;-71
2022/09/11 07:15:25;;;;;;;4.88;4.40;;;17.50;97.20;;;;;;1734618;28;20206;-71
2022/09/11 07:16:17;;;;;;;5.33;4.83;;;17.50;97.20;;;;;;1734598;28;20203;-71
2022/09/11 07:17:07;;;;;;;5.40;4.93;;;17.50;97.20;;;;;;1734549;28;20826;-71
2022/09/11 07:18:00;;;;;;;5.83;5.20;;;17.50;97.20;;;;;;1734348;28;20568;-71
2022/09/11 07:18:52;;;;;;;4.80;4.40;;;17.50;97.20;;;;;;1734456;28;20303;-70
2022/09/11 07:19:43;;;;;;;6.38;4.63;;;17.50;97.20;;;;;;1734621;28;20231;-70
2022/09/11 07:20:38;;;;;;;4.60;4.30;;;17.50;97.20;;;;;;1734525;28;20203;-71
2022/09/11 07:21:30;;;;;;;4.80;4.35;;;17.50;97.20;;;;;;1734540;28;20298;-71
2022/09/11 07:22:21;;;;;;;6.15;4.82;;;17.50;97.20;;;;;;1734487;28;20203;-70
2022/09/11 07:23:13;;;;;;;5.13;4.63;;;17.50;97.20;;;;;;1734584;28;20200;-71
2022/09/11 07:24:04;;;;;;;4.45;4.15;;;17.50;97.20;;;;;;1734565;28;20222;-70
2022/09/11 07:24:55;;;;;;;7.35;4.55;;;17.50;97.20;;;;;;1734519;28;20191;-71
2022/09/11 07:25:47;;;;;;;4.72;4.32;;;17.50;97.20;;;;;;1734505;28;20211;-70
2022/09/11 07:26:39;;;;;;;4.47;4.18;;;17.50;97.20;;;;;;1734469;28;20577;-71
2022/09/11 07:27:30;;;;;;;4.30;4.00;;;17.50;97.20;;;;;;1733931;28;20203;-70
2022/09/11 07:28:22;;;;;;;4.60;4.20;;;17.60;97.20;;;;;;1734316;28;20202;-71
2022/09/11 07:29:12;;;;;;;5.28;4.78;;;17.50;97.20;;;;;;1734542;28;20196;-71
2022/09/11 07:30:05;;;;;;;4.50;4.10;;;17.50;97.20;;;;;;1734515;28;20651;-71
2022/09/11 07:31:03;;;;;;;7.50;4.20;;;17.60;97.20;;;;;;1734444;28;20442;-71
2022/09/11 07:31:56;;;;;;;4.80;4.30;;;17.50;97.20;;;;;;1734320;28;20253;-71
2022/09/11 07:32:48;;;;;;;4.90;4.43;;;17.50;97.20;;;;;;1734562;28;20214;-71
2022/09/11 07:33:44;;;;;;;4.60;4.30;;;17.60;97.20;;;;;;1734476;28;20200;-71
2022/09/11 07:34:35;;;;;;;4.97;4.57;;;17.50;97.20;;;;;;1734502;28;20630;-71
2022/09/11 07:35:26;;;;;;;5.40;5.00;;;17.60;97.20;;;;;;1734489;28;20261;-71
2022/09/11 07:36:20;;;;;;;7.53;4.38;;;17.60;97.20;;;;;;1734350;28;20235;-71
2022/09/11 07:37:12;;;;;;;5.30;4.90;;;17.60;97.20;;;;;;1734044;28;20259;-71
2022/09/11 07:38:03;;;;;;;5.20;4.72;;;17.60;97.20;;;;;;1734453;28;20255;-71
2022/09/11 07:38:55;;;;;;;5.37;4.87;;;17.60;97.20;;;;;;1734412;28;20204;-71
2022/09/11 07:39:46;;;;;;;5.82;5.35;;;17.60;97.20;;;;;;1734411;28;20218;-71
2022/09/11 07:40:37;;;;;;;6.00;4.80;;;17.60;97.20;;;;;;1734421;28;20215;-71
2022/09/11 07:41:28;;;;;;;4.80;4.45;;;17.60;97.20;;;;;;1734459;28;20283;-71
2022/09/11 07:42:20;;;;;;;5.27;4.87;;;17.60;97.20;;;;;;1734447;28;20191;-71
2022/09/11 07:43:12;;;;;;;5.30;4.70;;;17.60;97.20;;;;;;1734450;28;20203;-70
2022/09/11 07:44:05;;;;;;;5.10;4.80;;;17.60;97.20;;;;;;1734111;28;20260;-70
2022/09/11 07:44:56;;;;;;;6.90;5.38;;;17.60;97.20;;;;;;1734437;28;20200;-70
2022/09/11 07:45:49;;;;;;;5.90;5.43;;;17.50;97.20;;;;;;1734455;28;20279;-70
2022/09/11 07:46:40;;;;;;;5.72;5.18;;;17.50;97.20;;;;;;1734253;28;20290;-70
2022/09/11 07:47:32;;;;;;;5.40;5.00;;;17.50;97.20;;;;;;1734197;28;20266;-70
2022/09/11 07:48:23;;;;;;;5.60;5.18;;;17.50;97.20;;;;;;1734318;28;20442;-70
2022/09/11 07:49:15;;;;;;;5.30;4.80;;;17.50;97.20;;;;;;1734472;28;20286;-70
2022/09/11 07:50:06;;;;;;;5.15;4.75;;;17.50;97.20;;;;;;1734363;28;20227;-70
2022/09/11 07:51:01;;;;;;;5.00;4.50;;;17.60;97.20;;;;;;1734391;28;20200;-70
2022/09/11 07:51:53;;;;;;;4.50;4.10;;;17.60;97.20;;;;;;1734240;28;20274;-70
2022/09/11 07:52:45;;;;;;;5.90;5.45;;;17.60;97.20;;;;;;1734382;28;20290;-71
2022/09/11 07:53:37;;;;;;;6.20;5.70;;;17.60;97.20;;;;;;1734325;28;20199;-70
2022/09/11 07:54:29;;;;;;;7.25;6.50;;;17.60;97.20;;;;;;1734394;28;20196;-71
2022/09/11 07:55:20;;;;;;;7.05;6.32;;;17.60;97.20;;;;;;1734416;28;20238;-70
2022/09/11 07:56:14;;;;;;;5.70;5.20;;;17.70;97.20;;;;;;1734290;28;20314;-71
2022/09/11 07:57:04;;;;;;;6.63;6.03;;;17.70;97.20;;;;;;1734287;28;20718;-71
2022/09/11 07:57:56;;;;;;;6.70;6.10;;;17.70;97.20;;;;;;1734093;28;20585;-71
2022/09/11 07:58:47;;;;;;;6.40;5.90;;;17.70;97.20;;;;;;1734310;28;20442;-70
2022/09/11 07:59:39;;;;;;;6.65;6.05;;;17.80;97.20;;;;;;1734297;28;20223;-71
2022/09/11 08:00:30;;;;;;;6.55;5.90;;;17.80;97.20;;;;;;1734201;28;20200;-70
2022/09/11 08:01:23;;;;;;;7.10;6.50;;;17.80;97.20;;;;;;1734389;28;20199;-70
2022/09/11 08:02:14;;;;;;;8.65;7.20;;;17.80;97.20;;;;;;1734448;28;20192;-72
2022/09/11 08:03:06;;;;;;;7.23;6.63;;;17.90;97.20;;;;;;1734278;28;20206;-72
2022/09/11 08:03:59;;;;;;;7.85;6.93;;;17.90;97.20;;;;;;1734289;28;20473;-72
2022/09/11 08:04:51;;;;;;;6.70;6.07;;;17.90;97.20;;;;;;1734341;28;20634;-72
2022/09/11 08:05:42;;;;;;;7.18;5.95;;;17.90;97.20;;;;;;1734326;28;20261;-72
2022/09/11 08:06:36;;;;;;;6.40;5.87;;;17.90;97.20;;;;;;1734224;28;20233;-72
2022/09/11 08:07:28;;;;;;;6.70;6.20;;;17.90;97.20;;;;;;1734007;28;20224;-71
2022/09/11 08:08:20;;;;;;;6.40;5.82;;;18.00;97.20;;;;;;1734253;28;20727;-71
2022/09/11 08:09:13;;;;;;;7.00;6.40;;;18.00;97.20;;;;;;1734200;28;20207;-71
2022/09/11 08:10:07;;;;;;;6.82;6.22;;;18.00;97.20;;;;;;1733781;28;20420;-72
2022/09/11 08:11:02;;;;;;;6.60;6.00;;;18.00;97.20;;;;;;1734241;28;20204;-71
2022/09/11 08:11:57;;;;;;;6.72;6.13;;;18.10;97.20;;;;;;1734303;28;20199;-71
2022/09/11 08:12:48;;;;;;;8.00;7.20;;;18.10;97.20;;;;;;1734344;28;20558;-71
2022/09/11 08:13:40;;;;;;;6.73;6.00;;;18.10;97.20;;;;;;1734335;28;20586;-71
2022/09/11 08:14:31;;;;;;;8.27;7.57;;;18.10;97.20;;;;;;1734294;28;20212;-70
2022/09/11 08:15:22;;;;;;;7.47;6.83;;;18.10;97.20;;;;;;1734312;28;20207;-71
2022/09/11 08:16:13;;;;;;;7.60;6.93;;;18.10;97.20;;;;;;1734303;28;20208;-71
2022/09/11 08:17:05;;;;;;;8.07;6.83;;;18.10;97.20;;;;;;1733677;28;20210;-71
2022/09/11 08:17:55;;;;;;;7.05;6.45;;;18.10;97.20;;;;;;1734066;28;20211;-70
2022/09/11 08:18:48;;;;;;;7.33;6.83;;;18.10;97.20;;;;;;1733971;28;20195;-71
2022/09/11 08:19:39;;;;;;;6.95;6.45;;;18.20;97.20;;;;;;1734288;28;20667;-71
2022/09/11 08:20:31;;;;;;;7.53;6.82;;;18.20;97.20;;;;;;1733671;28;20199;-71
2022/09/11 08:21:25;;;;;;;7.40;6.80;;;18.20;97.20;;;;;;1732848;28;20196;-71
2022/09/11 08:22:15;;;;;;;7.72;6.50;;;18.20;97.20;;;;;;1734182;28;20204;-71
2022/09/11 08:23:09;;;;;;;8.10;7.40;;;18.30;97.20;;;;;;1734325;28;20279;-71
2022/09/11 08:24:00;;;;;;;7.85;6.95;;;18.30;97.20;;;;;;1734293;28;20204;-71
2022/09/11 08:24:52;;;;;;;7.45;6.75;;;18.30;97.20;;;;;;1734185;28;20295;-70
2022/09/11 08:25:43;;;;;;;7.53;6.82;;;18.30;97.20;;;;;;1734249;28;20239;-71
2022/09/11 08:26:36;;;;;;;7.95;7.15;;;18.30;97.20;;;;;;1731905;28;20230;-71
2022/09/11 08:27:27;;;;;;;8.15;7.45;;;18.30;97.20;;;;;;1727057;28;20220;-71
2022/09/11 08:28:19;;;;;;;7.80;7.20;;;18.40;97.20;;;;;;1727371;28;20205;-71
2022/09/11 08:29:09;;;;;;;7.88;7.18;;;18.40;97.20;;;;;;1727350;28;20209;-70
2022/09/11 08:30:01;;;;;;;7.00;6.30;;;18.40;97.20;;;;;;1727481;28;20192;-71
2022/09/11 08:30:56;;;;;;;7.00;6.45;;;18.40;97.20;;;;;;1727418;28;20200;-71
2022/09/11 08:31:47;;;;;;;7.07;6.50;;;18.40;97.20;;;;;;1727357;28;20284;-69
2022/09/11 08:32:39;;;;;;;8.15;7.43;;;18.50;97.20;;;;;;1727299;28;20252;-71
2022/09/11 08:33:33;;;;;;;7.70;6.90;;;18.50;97.20;;;;;;1727358;28;20200;-71
2022/09/11 08:34:23;;;;;;;8.40;7.70;;;18.50;97.20;;;;;;1727536;28;20618;-71
2022/09/11 08:35:15;;;;;;;9.43;8.43;;;18.50;97.20;;;;;;1727308;28;20586;-71
2022/09/11 08:36:08;;;;;;;8.55;7.85;;;18.50;97.20;;;;;;1727355;28;20275;-71
2022/09/11 08:37:00;;;;;;;8.57;7.82;;;18.60;97.20;;;;;;1727259;28;20224;-71
2022/09/11 08:37:51;;;;;;;9.07;7.88;;;18.60;97.20;;;;;;1727067;28;20601;-71
2022/09/11 08:38:45;;;;;;;9.20;8.30;;;18.60;97.20;;;;;;1727180;28;20200;-71
2022/09/11 08:39:35;;;;;;;8.35;7.72;;;18.60;97.20;;;;;;1727303;28;20447;-71
2022/09/11 08:40:28;;;;;;;8.67;7.97;;;18.70;97.20;;;;;;1727391;28;20206;-71
2022/09/11 08:41:29;;;;;;;8.70;7.78;;;18.70;97.20;;;;;;1727428;28;20203;-71
2022/09/11 08:42:20;;;;;;;8.50;7.70;;;18.70;97.20;;;;;;1727395;28;20631;-71
2022/09/11 08:43:18;;;;;;;8.82;8.00;;;18.70;97.20;;;;;;1727264;28;20231;-71
2022/09/11 08:44:19;;;;;;;9.00;8.20;;;18.80;97.20;;;;;;1727397;28;20592;-71
2022/09/11 08:45:14;;;;;;;8.43;7.72;;;18.80;97.20;;;;;;1727428;28;20204;-71
2022/09/11 08:46:08;;;;;;;8.60;7.80;;;18.80;97.20;;;;;;1727380;28;20203;-71
2022/09/11 08:47:05;;;;;;;9.18;8.13;;;18.80;97.20;;;;;;1727225;28;20229;-71
2022/09/11 08:47:59;;;;;;;8.80;8.10;;;18.80;97.20;;;;;;1727018;28;20211;-71
2022/09/11 08:48:55;;;;;;;9.77;9.07;;;18.80;97.20;;;;;;1727260;28;20258;-71
2022/09/11 08:49:57;;;;;;;8.55;7.85;;;18.80;97.20;;;;;;1727374;28;20204;-72
2022/09/11 08:50:48;;;;;;;8.82;7.88;;;18.80;97.20;;;;;;1727339;28;20212;-71
2022/09/11 08:51:40;;;;;;;8.50;7.73;;;18.90;97.20;;;;;;1727350;28;20196;-71
2022/09/11 08:52:34;;;;;;;9.68;8.80;;;18.90;97.20;;;;;;1727251;28;20212;-71
2022/09/11 08:53:30;;;;;;;8.43;7.78;;;18.90;97.20;;;;;;1727401;28;20585;-71
2022/09/11 08:54:26;;;;;;;10.15;9.05;;;19.00;97.20;;;;;;1727320;28;20207;-71
2022/09/11 08:55:27;;;;;;;8.35;7.65;;;19.00;97.20;;;;;;1727316;28;20201;-71
2022/09/11 08:56:21;;;;;;;9.32;8.38;;;19.10;97.20;;;;;;1727370;28;20196;-71
2022/09/11 08:57:18;;;;;;;7.97;7.28;;;19.20;97.20;;;;;;1726998;28;20275;-71
2022/09/11 08:58:19;;;;;;;6.93;6.20;;;19.30;97.20;;;;;;1727572;28;20229;-71
2022/09/11 08:59:21;;;;;;;8.15;7.45;;;19.40;97.20;;;;;;1727354;28;20204;-71
2022/09/11 09:00:18;;;;;;;8.52;7.63;;;19.50;97.20;;;;;;1727299;28;20208;-71
2022/09/11 09:01:19;;;;;;;8.57;7.72;;;19.60;97.20;;;;;;1727373;28;20197;-72
2022/09/11 09:02:30;;;;;;;8.30;7.60;;;19.70;97.20;;;;;;1727261;28;20204;-73
2022/09/11 09:03:42;;;;;;;8.32;7.50;;;19.70;97.20;;;;;;1727350;28;20201;-72
2022/09/11 09:04:49;;;;;;;7.30;6.70;;;19.80;97.20;;;;;;1727288;28;20209;-71
2022/09/11 09:05:46;;;;;;;7.75;7.15;;;19.90;97.20;;;;;;1727254;28;20287;-71
2022/09/11 09:06:54;;;;;;;7.85;6.90;;;19.90;97.20;;;;;;1727240;28;20263;-71
2022/09/11 09:08:00;;;;;;;8.23;7.43;;;20.00;97.20;;;;;;1726985;28;20224;-71
2022/09/11 09:09:00;;;;;;;6.80;6.20;;;20.10;97.20;;;;;;1727222;28;20683;-71
2022/09/11 09:10:01;;;;;;;7.22;6.53;;;20.20;97.20;;;;;;1723606;28;20219;-71
2022/09/11 09:10:58;;;;;;;7.47;6.60;;;20.30;97.20;;;;;;1720462;28;20240;-71
2022/09/11 09:11:54;;;;;;;6.43;5.82;;;20.40;97.20;;;;;;1720305;28;20209;-72
2022/09/11 09:12:55;;;;;;;6.63;5.97;;;20.40;97.20;;;;;;1723133;28;20216;-71
2022/09/11 09:14:06;;;;;;;6.50;6.00;;;20.40;97.20;;;;;;1727099;28;20571;-70
2022/09/11 09:15:24;;;;;;;6.60;6.05;;;20.50;97.20;;;;;;1726951;28;20283;-71
2022/09/11 09:16:27;;;;;;;7.45;6.75;;;20.50;97.20;;;;;;1720499;28;20243;-71
2022/09/11 09:17:21;;;;;;;6.80;6.20;;;20.50;97.20;;;;;;1724240;28;20217;-71
2022/09/11 09:18:17;;;;;;;6.70;6.20;;;20.50;97.20;;;;;;1733998;28;20223;-71
2022/09/11 09:19:14;;;;;;;6.88;6.38;;;20.50;97.20;;;;;;1733961;28;20741;-71
2022/09/11 09:20:10;;;;;;;6.50;5.97;;;20.50;97.20;;;;;;1731075;28;20291;-71
2022/09/11 09:21:09;;;;;;;6.70;6.00;;;20.50;97.20;;;;;;1727029;28;20271;-70
2022/09/11 09:22:09;;;;;;;6.93;6.22;;;20.60;97.20;;;;;;1727172;28;20208;-71
2022/09/11 09:23:06;;;;;;;7.93;6.90;;;20.70;97.20;;;;;;1723972;28;20211;-70
2022/09/11 09:24:01;;;;;;;6.82;6.22;;;20.70;97.20;;;;;;1728574;28;20652;-71
2022/09/11 09:24:59;;;;;;;6.20;5.70;;;20.80;97.20;;;;;;1728657;28;20566;-70
2022/09/11 09:25:51;;;;;;;5.95;5.45;;;20.80;97.20;;;;;;1732513;28;20219;-71
2022/09/11 09:26:43;;;;;;;6.30;5.75;;;20.80;97.20;;;;;;1729065;28;20569;-71
2022/09/11 09:27:38;;;;;;;6.97;6.32;;;20.80;97.20;;;;;;1732121;28;20207;-71
2022/09/11 09:28:37;;;;;;;5.72;5.22;;;20.80;97.20;;;;;;1726632;28;20251;-70
2022/09/11 09:29:35;;;;;;;6.18;5.60;;;20.80;97.20;;;;;;1722265;28;20693;-71
2022/09/11 09:30:34;;;;;;;6.10;5.60;;;20.80;97.20;;;;;;1721566;28;20205;-71
2022/09/11 09:31:29;;;;;;;6.45;5.95;;;20.80;97.20;;;;;;1721699;28;20507;-70
2022/09/11 09:32:29;;;;;;;6.60;6.00;;;20.80;97.20;;;;;;1733899;28;20207;-71
2022/09/11 09:33:29;;;;;;;7.15;6.53;;;20.80;97.20;;;;;;1734984;28;20678;-70
2022/09/11 09:34:22;;;;;;;6.25;5.70;;;20.80;97.20;;;;;;1734944;28;20196;-70
2022/09/11 09:35:18;;;;;;;6.38;5.80;;;20.80;97.20;;;;;;1734885;28;20200;-70
2022/09/11 09:36:16;;;;;;;5.85;5.45;;;20.80;97.20;;;;;;1728286;28;20266;-70
2022/09/11 09:37:15;;;;;;;6.07;5.57;;;20.80;97.20;;;;;;1727993;28;20224;-71